sensor_id;sensor_type;location;lat;lon;timestamp;P1;durP1;ratioP1;P2;durP2;ratioP2
17598;SDS011;8918;52.092;5.232;2022-12-18T00:01:22;64.73;;;28.03;;
17598;SDS011;8918;52.092;5.232;2022-12-18T00:03:49;64.10;;;27.10;;
17598;SDS011;8918;52.092;5.232;2022-12-18T00:06:16;70.33;;;28.60;;
17598;SDS011;8918;52.092;5.232;2022-12-18T00:08:42;69.20;;;29.23;;
17598;SDS011;8918;52.092;5.232;2022-12-18T00:11:12;63.57;;;28.03;;
17598;SDS011;8918;52.092;5.232;2022-12-18T00:13:39;63.10;;;26.90;;
17598;SDS011;8918;52.092;5.232;2022-12-18T00:16:14;64.07;;;27.13;;
17598;SDS011;8918;52.092;5.232;2022-12-18T00:18:44;62.77;;;26.13;;
17598;SDS011;8918;52.092;5.232;2022-12-18T00:21:11;65.03;;;26.53;;
17598;SDS011;8918;52.092;5.232;2022-12-18T00:23:38;63.47;;;26.83;;
17598;SDS011;8918;52.092;5.232;2022-12-18T00:26:06;65.63;;;26.87;;
17598;SDS011;8918;52.092;5.232;2022-12-18T00:28:35;64.60;;;26.90;;
17598;SDS011;8918;52.092;5.232;2022-12-18T00:31:05;64.53;;;27.17;;
17598;SDS011;8918;52.092;5.232;2022-12-18T00:33:32;59.87;;;25.50;;
17598;SDS011;8918;52.092;5.232;2022-12-18T00:36:02;60.80;;;25.73;;
17598;SDS011;8918;52.092;5.232;2022-12-18T00:38:29;58.37;;;25.90;;
17598;SDS011;8918;52.092;5.232;2022-12-18T00:40:55;62.50;;;26.23;;
17598;SDS011;8918;52.092;5.232;2022-12-18T00:43:20;58.03;;;25.53;;
17598;SDS011;8918;52.092;5.232;2022-12-18T00:45:46;56.43;;;25.20;;
17598;SDS011;8918;52.092;5.232;2022-12-18T00:48:12;60.50;;;25.93;;
17598;SDS011;8918;52.092;5.232;2022-12-18T00:50:37;61.70;;;26.77;;
17598;SDS011;8918;52.092;5.232;2022-12-18T00:53:03;65.53;;;27.63;;
17598;SDS011;8918;52.092;5.232;2022-12-18T00:55:28;61.03;;;26.70;;
17598;SDS011;8918;52.092;5.232;2022-12-18T00:57:54;66.00;;;27.87;;
17598;SDS011;8918;52.092;5.232;2022-12-18T01:00:20;67.03;;;27.60;;
17598;SDS011;8918;52.092;5.232;2022-12-18T01:02:45;61.23;;;26.07;;
17598;SDS011;8918;52.092;5.232;2022-12-18T01:05:11;66.30;;;27.03;;
17598;SDS011;8918;52.092;5.232;2022-12-18T01:07:38;73.10;;;28.40;;
17598;SDS011;8918;52.092;5.232;2022-12-18T01:10:04;60.03;;;26.20;;
17598;SDS011;8918;52.092;5.232;2022-12-18T01:12:32;65.57;;;27.27;;
17598;SDS011;8918;52.092;5.232;2022-12-18T01:14:58;65.87;;;27.83;;
17598;SDS011;8918;52.092;5.232;2022-12-18T01:17:23;70.80;;;28.93;;
17598;SDS011;8918;52.092;5.232;2022-12-18T01:19:49;73.27;;;27.80;;
17598;SDS011;8918;52.092;5.232;2022-12-18T01:22:15;68.27;;;27.03;;
17598;SDS011;8918;52.092;5.232;2022-12-18T01:24:40;67.70;;;27.33;;
17598;SDS011;8918;52.092;5.232;2022-12-18T01:27:06;67.33;;;28.70;;
17598;SDS011;8918;52.092;5.232;2022-12-18T01:29:32;69.10;;;26.33;;
17598;SDS011;8918;52.092;5.232;2022-12-18T01:31:57;69.77;;;27.67;;
17598;SDS011;8918;52.092;5.232;2022-12-18T01:34:23;68.20;;;27.13;;
17598;SDS011;8918;52.092;5.232;2022-12-18T01:36:49;72.87;;;27.33;;
17598;SDS011;8918;52.092;5.232;2022-12-18T01:39:17;72.17;;;27.93;;
17598;SDS011;8918;52.092;5.232;2022-12-18T01:41:43;67.60;;;27.77;;
17598;SDS011;8918;52.092;5.232;2022-12-18T01:50:07;62.63;;;26.73;;
17598;SDS011;8918;52.092;5.232;2022-12-18T01:52:33;64.80;;;26.33;;
17598;SDS011;8918;52.092;5.232;2022-12-18T01:54:59;66.40;;;26.50;;
17598;SDS011;8918;52.092;5.232;2022-12-18T01:57:27;68.77;;;26.27;;
17598;SDS011;8918;52.092;5.232;2022-12-18T01:59:53;65.40;;;26.73;;
17598;SDS011;8918;52.092;5.232;2022-12-18T02:02:23;62.80;;;27.43;;
17598;SDS011;8918;52.092;5.232;2022-12-18T02:04:53;68.17;;;28.23;;
17598;SDS011;8918;52.092;5.232;2022-12-18T02:07:28;67.77;;;27.70;;
17598;SDS011;8918;52.092;5.232;2022-12-18T02:10:04;66.60;;;26.90;;
17598;SDS011;8918;52.092;5.232;2022-12-18T02:15:31;69.83;;;27.53;;
17598;SDS011;8918;52.092;5.232;2022-12-18T02:18:14;61.23;;;27.17;;
17598;SDS011;8918;52.092;5.232;2022-12-18T02:20:50;61.73;;;27.60;;
17598;SDS011;8918;52.092;5.232;2022-12-18T02:23:35;66.60;;;26.80;;
17598;SDS011;8918;52.092;5.232;2022-12-18T02:26:26;60.33;;;25.97;;
17598;SDS011;8918;52.092;5.232;2022-12-18T02:29:05;59.37;;;26.43;;
17598;SDS011;8918;52.092;5.232;2022-12-18T02:31:42;58.87;;;25.37;;
17598;SDS011;8918;52.092;5.232;2022-12-18T02:34:12;60.87;;;26.77;;
17598;SDS011;8918;52.092;5.232;2022-12-18T02:36:40;58.70;;;26.03;;
17598;SDS011;8918;52.092;5.232;2022-12-18T02:39:09;62.17;;;27.43;;
17598;SDS011;8918;52.092;5.232;2022-12-18T02:41:36;61.00;;;26.83;;
17598;SDS011;8918;52.092;5.232;2022-12-18T02:44:06;60.67;;;25.87;;
17598;SDS011;8918;52.092;5.232;2022-12-18T02:46:41;62.00;;;25.80;;
17598;SDS011;8918;52.092;5.232;2022-12-18T02:51:48;59.70;;;27.30;;
17598;SDS011;8918;52.092;5.232;2022-12-18T02:54:34;56.93;;;26.10;;
17598;SDS011;8918;52.092;5.232;2022-12-18T02:57:20;57.67;;;25.40;;
17598;SDS011;8918;52.092;5.232;2022-12-18T03:00:12;59.07;;;26.10;;
17598;SDS011;8918;52.092;5.232;2022-12-18T03:05:38;60.87;;;27.47;;
17598;SDS011;8918;52.092;5.232;2022-12-18T03:08:30;55.63;;;25.73;;
17598;SDS011;8918;52.092;5.232;2022-12-18T03:11:06;54.30;;;25.17;;
17598;SDS011;8918;52.092;5.232;2022-12-18T03:13:35;54.83;;;25.50;;
17598;SDS011;8918;52.092;5.232;2022-12-18T03:16:06;57.77;;;25.70;;
17598;SDS011;8918;52.092;5.232;2022-12-18T03:21:02;57.20;;;25.90;;
17598;SDS011;8918;52.092;5.232;2022-12-18T03:23:32;56.40;;;25.77;;
17598;SDS011;8918;52.092;5.232;2022-12-18T03:26:06;60.97;;;28.20;;
17598;SDS011;8918;52.092;5.232;2022-12-18T03:28:38;55.57;;;26.27;;
17598;SDS011;8918;52.092;5.232;2022-12-18T03:31:08;56.23;;;27.03;;
17598;SDS011;8918;52.092;5.232;2022-12-18T03:33:38;53.70;;;27.20;;
17598;SDS011;8918;52.092;5.232;2022-12-18T03:36:15;56.43;;;26.10;;
17598;SDS011;8918;52.092;5.232;2022-12-18T03:38:41;55.77;;;26.30;;
17598;SDS011;8918;52.092;5.232;2022-12-18T03:43:48;58.07;;;25.73;;
17598;SDS011;8918;52.092;5.232;2022-12-18T03:46:38;53.90;;;25.47;;
17598;SDS011;8918;52.092;5.232;2022-12-18T03:49:33;54.20;;;25.43;;
17598;SDS011;8918;52.092;5.232;2022-12-18T03:52:37;50.57;;;24.73;;
17598;SDS011;8918;52.092;5.232;2022-12-18T03:55:01;60.27;;;25.20;;
17598;SDS011;8918;52.092;5.232;2022-12-18T03:57:30;49.93;;;24.23;;
17598;SDS011;8918;52.092;5.232;2022-12-18T04:00:03;50.63;;;24.17;;
17598;SDS011;8918;52.092;5.232;2022-12-18T04:02:37;52.27;;;24.43;;
17598;SDS011;8918;52.092;5.232;2022-12-18T04:05:05;48.10;;;23.83;;
17598;SDS011;8918;52.092;5.232;2022-12-18T04:07:33;48.23;;;23.43;;
17598;SDS011;8918;52.092;5.232;2022-12-18T04:10:00;48.13;;;24.03;;
17598;SDS011;8918;52.092;5.232;2022-12-18T04:12:28;47.40;;;23.50;;
17598;SDS011;8918;52.092;5.232;2022-12-18T04:14:55;45.80;;;22.90;;
17598;SDS011;8918;52.092;5.232;2022-12-18T04:17:21;45.73;;;23.13;;
17598;SDS011;8918;52.092;5.232;2022-12-18T04:19:47;48.73;;;22.67;;
17598;SDS011;8918;52.092;5.232;2022-12-18T04:22:12;43.50;;;22.03;;
17598;SDS011;8918;52.092;5.232;2022-12-18T04:24:38;42.23;;;21.83;;
17598;SDS011;8918;52.092;5.232;2022-12-18T04:27:04;48.43;;;23.13;;
17598;SDS011;8918;52.092;5.232;2022-12-18T04:29:29;42.50;;;22.03;;
17598;SDS011;8918;52.092;5.232;2022-12-18T04:31:55;44.77;;;22.10;;
17598;SDS011;8918;52.092;5.232;2022-12-18T04:34:20;45.47;;;22.07;;
17598;SDS011;8918;52.092;5.232;2022-12-18T04:36:46;42.37;;;19.93;;
17598;SDS011;8918;52.092;5.232;2022-12-18T04:39:12;39.87;;;20.50;;
17598;SDS011;8918;52.092;5.232;2022-12-18T04:41:37;40.33;;;20.50;;
17598;SDS011;8918;52.092;5.232;2022-12-18T04:44:03;35.53;;;18.97;;
17598;SDS011;8918;52.092;5.232;2022-12-18T04:46:29;39.50;;;20.10;;
17598;SDS011;8918;52.092;5.232;2022-12-18T04:48:55;35.83;;;18.60;;
17598;SDS011;8918;52.092;5.232;2022-12-18T04:51:20;35.80;;;18.33;;
17598;SDS011;8918;52.092;5.232;2022-12-18T04:53:46;36.27;;;18.90;;
17598;SDS011;8918;52.092;5.232;2022-12-18T04:56:13;35.10;;;19.10;;
17598;SDS011;8918;52.092;5.232;2022-12-18T04:58:40;35.10;;;17.83;;
17598;SDS011;8918;52.092;5.232;2022-12-18T05:01:06;37.87;;;18.90;;
17598;SDS011;8918;52.092;5.232;2022-12-18T05:03:33;31.60;;;17.73;;
17598;SDS011;8918;52.092;5.232;2022-12-18T05:05:59;34.83;;;18.50;;
17598;SDS011;8918;52.092;5.232;2022-12-18T05:08:25;33.53;;;17.43;;
17598;SDS011;8918;52.092;5.232;2022-12-18T05:11:04;31.93;;;16.93;;
17598;SDS011;8918;52.092;5.232;2022-12-18T05:13:31;30.57;;;16.80;;
17598;SDS011;8918;52.092;5.232;2022-12-18T05:15:58;29.90;;;16.67;;
17598;SDS011;8918;52.092;5.232;2022-12-18T05:18:23;29.20;;;16.63;;
17598;SDS011;8918;52.092;5.232;2022-12-18T05:20:50;30.03;;;16.27;;
17598;SDS011;8918;52.092;5.232;2022-12-18T05:23:17;32.47;;;17.30;;
17598;SDS011;8918;52.092;5.232;2022-12-18T05:26:05;30.03;;;17.03;;
17598;SDS011;8918;52.092;5.232;2022-12-18T05:28:31;30.23;;;15.90;;
17598;SDS011;8918;52.092;5.232;2022-12-18T05:30:59;30.93;;;16.10;;
17598;SDS011;8918;52.092;5.232;2022-12-18T05:33:26;32.40;;;16.17;;
17598;SDS011;8918;52.092;5.232;2022-12-18T05:35:55;29.77;;;16.13;;
17598;SDS011;8918;52.092;5.232;2022-12-18T05:38:23;30.33;;;16.73;;
17598;SDS011;8918;52.092;5.232;2022-12-18T05:40:50;27.73;;;16.23;;
17598;SDS011;8918;52.092;5.232;2022-12-18T05:43:17;29.87;;;15.20;;
17598;SDS011;8918;52.092;5.232;2022-12-18T05:45:44;33.33;;;17.07;;
17598;SDS011;8918;52.092;5.232;2022-12-18T05:48:10;28.53;;;15.67;;
17598;SDS011;8918;52.092;5.232;2022-12-18T05:50:39;28.97;;;15.43;;
17598;SDS011;8918;52.092;5.232;2022-12-18T05:53:06;26.07;;;15.13;;
17598;SDS011;8918;52.092;5.232;2022-12-18T05:55:32;29.33;;;15.13;;
17598;SDS011;8918;52.092;5.232;2022-12-18T05:58:03;27.10;;;15.67;;
17598;SDS011;8918;52.092;5.232;2022-12-18T06:00:30;27.20;;;15.30;;
17598;SDS011;8918;52.092;5.232;2022-12-18T06:02:57;26.67;;;14.70;;
17598;SDS011;8918;52.092;5.232;2022-12-18T06:05:23;31.50;;;16.50;;
17598;SDS011;8918;52.092;5.232;2022-12-18T06:07:49;24.77;;;14.67;;
17598;SDS011;8918;52.092;5.232;2022-12-18T06:10:15;23.50;;;14.80;;
17598;SDS011;8918;52.092;5.232;2022-12-18T06:12:41;26.93;;;14.17;;
17598;SDS011;8918;52.092;5.232;2022-12-18T06:15:07;23.23;;;14.10;;
17598;SDS011;8918;52.092;5.232;2022-12-18T06:17:33;24.53;;;14.33;;
17598;SDS011;8918;52.092;5.232;2022-12-18T06:19:59;24.50;;;13.40;;
17598;SDS011;8918;52.092;5.232;2022-12-18T06:22:26;26.00;;;14.33;;
17598;SDS011;8918;52.092;5.232;2022-12-18T06:24:51;26.37;;;14.73;;
17598;SDS011;8918;52.092;5.232;2022-12-18T06:27:17;25.90;;;14.63;;
17598;SDS011;8918;52.092;5.232;2022-12-18T06:29:42;26.40;;;14.63;;
17598;SDS011;8918;52.092;5.232;2022-12-18T06:32:08;27.27;;;14.60;;
17598;SDS011;8918;52.092;5.232;2022-12-18T06:34:36;25.33;;;14.27;;
17598;SDS011;8918;52.092;5.232;2022-12-18T06:37:02;26.60;;;14.70;;
17598;SDS011;8918;52.092;5.232;2022-12-18T06:39:28;23.80;;;13.77;;
17598;SDS011;8918;52.092;5.232;2022-12-18T06:41:54;27.37;;;14.40;;
17598;SDS011;8918;52.092;5.232;2022-12-18T06:44:19;24.80;;;14.13;;
17598;SDS011;8918;52.092;5.232;2022-12-18T06:46:45;23.57;;;13.77;;
17598;SDS011;8918;52.092;5.232;2022-12-18T06:49:11;25.47;;;13.50;;
17598;SDS011;8918;52.092;5.232;2022-12-18T06:51:37;24.27;;;13.20;;
17598;SDS011;8918;52.092;5.232;2022-12-18T06:54:03;22.50;;;14.20;;
17598;SDS011;8918;52.092;5.232;2022-12-18T06:56:28;23.40;;;13.67;;
17598;SDS011;8918;52.092;5.232;2022-12-18T06:58:54;23.00;;;13.83;;
17598;SDS011;8918;52.092;5.232;2022-12-18T07:01:20;25.83;;;14.47;;
17598;SDS011;8918;52.092;5.232;2022-12-18T07:03:46;22.10;;;13.50;;
17598;SDS011;8918;52.092;5.232;2022-12-18T07:06:17;23.23;;;13.57;;
17598;SDS011;8918;52.092;5.232;2022-12-18T07:08:44;23.73;;;13.87;;
17598;SDS011;8918;52.092;5.232;2022-12-18T07:11:10;24.87;;;14.90;;
17598;SDS011;8918;52.092;5.232;2022-12-18T07:13:36;21.80;;;13.53;;
17598;SDS011;8918;52.092;5.232;2022-12-18T07:16:06;23.33;;;13.60;;
17598;SDS011;8918;52.092;5.232;2022-12-18T07:18:36;21.63;;;13.70;;
17598;SDS011;8918;52.092;5.232;2022-12-18T07:21:02;23.03;;;13.70;;
17598;SDS011;8918;52.092;5.232;2022-12-18T07:23:33;23.23;;;13.47;;
17598;SDS011;8918;52.092;5.232;2022-12-18T07:26:01;23.73;;;14.27;;
17598;SDS011;8918;52.092;5.232;2022-12-18T07:28:31;22.50;;;14.37;;
17598;SDS011;8918;52.092;5.232;2022-12-18T07:30:58;25.07;;;13.80;;
17598;SDS011;8918;52.092;5.232;2022-12-18T07:33:27;23.67;;;14.20;;
17598;SDS011;8918;52.092;5.232;2022-12-18T07:35:53;24.73;;;14.03;;
17598;SDS011;8918;52.092;5.232;2022-12-18T07:38:18;26.33;;;15.83;;
17598;SDS011;8918;52.092;5.232;2022-12-18T07:40:44;23.13;;;14.83;;
17598;SDS011;8918;52.092;5.232;2022-12-18T07:43:10;22.53;;;13.77;;
17598;SDS011;8918;52.092;5.232;2022-12-18T07:45:35;21.20;;;13.83;;
17598;SDS011;8918;52.092;5.232;2022-12-18T07:48:01;23.93;;;15.23;;
17598;SDS011;8918;52.092;5.232;2022-12-18T07:50:26;23.67;;;14.53;;
17598;SDS011;8918;52.092;5.232;2022-12-18T07:52:52;25.17;;;15.03;;
17598;SDS011;8918;52.092;5.232;2022-12-18T07:55:18;27.10;;;15.33;;
17598;SDS011;8918;52.092;5.232;2022-12-18T07:57:43;22.20;;;13.80;;
17598;SDS011;8918;52.092;5.232;2022-12-18T08:00:09;22.97;;;13.80;;
17598;SDS011;8918;52.092;5.232;2022-12-18T08:02:35;22.40;;;14.07;;
17598;SDS011;8918;52.092;5.232;2022-12-18T08:05:01;21.93;;;13.43;;
17598;SDS011;8918;52.092;5.232;2022-12-18T08:07:26;21.90;;;14.07;;
17598;SDS011;8918;52.092;5.232;2022-12-18T08:09:52;23.80;;;13.80;;
17598;SDS011;8918;52.092;5.232;2022-12-18T08:12:17;24.77;;;14.53;;
17598;SDS011;8918;52.092;5.232;2022-12-18T08:14:43;22.93;;;14.03;;
17598;SDS011;8918;52.092;5.232;2022-12-18T08:17:09;21.73;;;13.77;;
17598;SDS011;8918;52.092;5.232;2022-12-18T08:19:34;19.63;;;13.13;;
17598;SDS011;8918;52.092;5.232;2022-12-18T08:22:00;23.50;;;13.30;;
17598;SDS011;8918;52.092;5.232;2022-12-18T08:24:25;21.50;;;13.37;;
17598;SDS011;8918;52.092;5.232;2022-12-18T08:26:51;21.47;;;13.40;;
17598;SDS011;8918;52.092;5.232;2022-12-18T08:29:17;24.63;;;14.17;;
17598;SDS011;8918;52.092;5.232;2022-12-18T08:31:42;23.77;;;13.90;;
17598;SDS011;8918;52.092;5.232;2022-12-18T08:34:08;23.20;;;14.23;;
17598;SDS011;8918;52.092;5.232;2022-12-18T08:36:36;23.10;;;14.33;;
17598;SDS011;8918;52.092;5.232;2022-12-18T08:39:02;24.27;;;13.53;;
17598;SDS011;8918;52.092;5.232;2022-12-18T08:41:27;20.63;;;13.47;;
17598;SDS011;8918;52.092;5.232;2022-12-18T08:43:53;21.60;;;13.50;;
17598;SDS011;8918;52.092;5.232;2022-12-18T08:46:38;21.37;;;13.53;;
17598;SDS011;8918;52.092;5.232;2022-12-18T08:49:05;21.30;;;12.87;;
17598;SDS011;8918;52.092;5.232;2022-12-18T08:51:32;19.83;;;12.57;;
17598;SDS011;8918;52.092;5.232;2022-12-18T08:53:58;27.13;;;12.67;;
17598;SDS011;8918;52.092;5.232;2022-12-18T08:56:24;20.57;;;13.10;;
17598;SDS011;8918;52.092;5.232;2022-12-18T08:58:53;20.03;;;13.10;;
17598;SDS011;8918;52.092;5.232;2022-12-18T09:01:19;21.73;;;13.13;;
17598;SDS011;8918;52.092;5.232;2022-12-18T09:03:45;24.93;;;13.13;;
17598;SDS011;8918;52.092;5.232;2022-12-18T09:06:13;21.23;;;12.80;;
17598;SDS011;8918;52.092;5.232;2022-12-18T09:08:40;21.03;;;12.97;;
17598;SDS011;8918;52.092;5.232;2022-12-18T09:11:11;19.83;;;13.30;;
17598;SDS011;8918;52.092;5.232;2022-12-18T09:13:39;19.03;;;12.10;;
17598;SDS011;8918;52.092;5.232;2022-12-18T09:16:05;22.73;;;13.37;;
17598;SDS011;8918;52.092;5.232;2022-12-18T09:18:30;21.17;;;12.57;;
17598;SDS011;8918;52.092;5.232;2022-12-18T09:20:56;21.97;;;13.03;;
17598;SDS011;8918;52.092;5.232;2022-12-18T09:23:22;21.90;;;13.00;;
17598;SDS011;8918;52.092;5.232;2022-12-18T09:25:47;20.50;;;12.37;;
17598;SDS011;8918;52.092;5.232;2022-12-18T09:28:14;20.17;;;12.73;;
17598;SDS011;8918;52.092;5.232;2022-12-18T09:30:42;19.60;;;12.37;;
17598;SDS011;8918;52.092;5.232;2022-12-18T09:33:11;21.90;;;13.50;;
17598;SDS011;8918;52.092;5.232;2022-12-18T09:35:37;22.20;;;12.73;;
17598;SDS011;8918;52.092;5.232;2022-12-18T09:38:07;18.17;;;12.13;;
17598;SDS011;8918;52.092;5.232;2022-12-18T09:40:36;19.53;;;12.10;;
17598;SDS011;8918;52.092;5.232;2022-12-18T09:43:10;18.73;;;12.20;;
17598;SDS011;8918;52.092;5.232;2022-12-18T09:45:44;20.73;;;12.77;;
17598;SDS011;8918;52.092;5.232;2022-12-18T09:48:31;20.60;;;12.70;;
17598;SDS011;8918;52.092;5.232;2022-12-18T09:51:02;19.43;;;12.30;;
17598;SDS011;8918;52.092;5.232;2022-12-18T09:53:34;19.53;;;11.93;;
17598;SDS011;8918;52.092;5.232;2022-12-18T09:56:02;21.87;;;13.43;;
17598;SDS011;8918;52.092;5.232;2022-12-18T09:58:37;22.87;;;12.17;;
17598;SDS011;8918;52.092;5.232;2022-12-18T10:01:16;19.53;;;12.50;;
17598;SDS011;8918;52.092;5.232;2022-12-18T10:03:45;19.27;;;11.70;;
17598;SDS011;8918;52.092;5.232;2022-12-18T10:19:58;18.60;;;11.60;;
17598;SDS011;8918;52.092;5.232;2022-12-18T10:27:29;20.43;;;12.50;;
17598;SDS011;8918;52.092;5.232;2022-12-18T10:29:55;20.13;;;12.07;;
17598;SDS011;8918;52.092;5.232;2022-12-18T10:32:23;18.67;;;11.60;;
17598;SDS011;8918;52.092;5.232;2022-12-18T10:34:53;18.50;;;11.93;;
17598;SDS011;8918;52.092;5.232;2022-12-18T10:37:22;18.80;;;11.83;;
17598;SDS011;8918;52.092;5.232;2022-12-18T10:42:40;18.70;;;11.90;;
17598;SDS011;8918;52.092;5.232;2022-12-18T10:45:11;19.17;;;11.20;;
17598;SDS011;8918;52.092;5.232;2022-12-18T10:47:48;17.93;;;11.10;;
17598;SDS011;8918;52.092;5.232;2022-12-18T10:50:28;19.77;;;11.93;;
17598;SDS011;8918;52.092;5.232;2022-12-18T10:52:59;19.40;;;11.73;;
17598;SDS011;8918;52.092;5.232;2022-12-18T11:00:43;19.40;;;12.00;;
17598;SDS011;8918;52.092;5.232;2022-12-18T11:06:05;21.13;;;11.30;;
17598;SDS011;8918;52.092;5.232;2022-12-18T11:08:32;17.80;;;11.43;;
17598;SDS011;8918;52.092;5.232;2022-12-18T11:10:58;17.37;;;11.00;;
17598;SDS011;8918;52.092;5.232;2022-12-18T11:13:25;18.70;;;11.30;;
17598;SDS011;8918;52.092;5.232;2022-12-18T11:15:52;18.60;;;11.20;;
17598;SDS011;8918;52.092;5.232;2022-12-18T11:18:21;18.93;;;11.60;;
17598;SDS011;8918;52.092;5.232;2022-12-18T11:21:09;16.00;;;11.13;;
17598;SDS011;8918;52.092;5.232;2022-12-18T11:23:37;18.17;;;11.07;;
17598;SDS011;8918;52.092;5.232;2022-12-18T11:26:14;18.23;;;11.40;;
17598;SDS011;8918;52.092;5.232;2022-12-18T11:28:46;20.13;;;12.13;;
17598;SDS011;8918;52.092;5.232;2022-12-18T11:31:26;18.87;;;11.33;;
17598;SDS011;8918;52.092;5.232;2022-12-18T11:33:58;19.03;;;11.83;;
17598;SDS011;8918;52.092;5.232;2022-12-18T11:36:50;17.17;;;10.90;;
17598;SDS011;8918;52.092;5.232;2022-12-18T11:39:18;17.73;;;11.23;;
17598;SDS011;8918;52.092;5.232;2022-12-18T11:41:56;19.10;;;11.17;;
17598;SDS011;8918;52.092;5.232;2022-12-18T11:50:25;18.57;;;11.67;;
17598;SDS011;8918;52.092;5.232;2022-12-18T11:53:09;17.67;;;11.07;;
17598;SDS011;8918;52.092;5.232;2022-12-18T12:06:22;20.23;;;11.13;;
17598;SDS011;8918;52.092;5.232;2022-12-18T12:11:34;18.57;;;10.90;;
17598;SDS011;8918;52.092;5.232;2022-12-18T12:25:14;16.67;;;10.40;;
17598;SDS011;8918;52.092;5.232;2022-12-18T12:33:29;21.13;;;12.20;;
17598;SDS011;8918;52.092;5.232;2022-12-18T12:38:35;19.50;;;10.67;;
17598;SDS011;8918;52.092;5.232;2022-12-18T12:41:09;15.40;;;10.57;;
17598;SDS011;8918;52.092;5.232;2022-12-18T12:43:56;17.43;;;11.07;;
17598;SDS011;8918;52.092;5.232;2022-12-18T12:46:24;20.03;;;11.33;;
17598;SDS011;8918;52.092;5.232;2022-12-18T12:51:35;19.63;;;12.07;;
17598;SDS011;8918;52.092;5.232;2022-12-18T12:54:05;19.40;;;11.30;;
17598;SDS011;8918;52.092;5.232;2022-12-18T12:59:37;17.90;;;11.47;;
17598;SDS011;8918;52.092;5.232;2022-12-18T13:07:39;18.43;;;11.47;;
17598;SDS011;8918;52.092;5.232;2022-12-18T13:12:57;19.10;;;11.97;;
17598;SDS011;8918;52.092;5.232;2022-12-18T13:18:27;19.67;;;11.40;;
17598;SDS011;8918;52.092;5.232;2022-12-18T13:25:51;19.63;;;12.40;;
17598;SDS011;8918;52.092;5.232;2022-12-18T13:30:45;21.93;;;12.37;;
17598;SDS011;8918;52.092;5.232;2022-12-18T13:45:48;17.40;;;11.70;;
17598;SDS011;8918;52.092;5.232;2022-12-18T13:48:26;23.47;;;12.50;;
17598;SDS011;8918;52.092;5.232;2022-12-18T13:50:55;21.00;;;12.93;;
17598;SDS011;8918;52.092;5.232;2022-12-18T13:53:23;18.00;;;11.87;;
17598;SDS011;8918;52.092;5.232;2022-12-18T13:55:52;21.13;;;12.40;;
17598;SDS011;8918;52.092;5.232;2022-12-18T13:58:18;18.23;;;11.47;;
17598;SDS011;8918;52.092;5.232;2022-12-18T14:00:44;19.07;;;11.97;;
17598;SDS011;8918;52.092;5.232;2022-12-18T14:03:23;20.63;;;12.83;;
17598;SDS011;8918;52.092;5.232;2022-12-18T14:05:52;20.17;;;12.40;;
17598;SDS011;8918;52.092;5.232;2022-12-18T14:08:20;19.27;;;11.80;;
17598;SDS011;8918;52.092;5.232;2022-12-18T14:10:47;22.17;;;12.23;;
17598;SDS011;8918;52.092;5.232;2022-12-18T14:13:23;18.10;;;11.43;;
17598;SDS011;8918;52.092;5.232;2022-12-18T14:15:52;19.37;;;12.23;;
17598;SDS011;8918;52.092;5.232;2022-12-18T14:18:20;21.43;;;12.07;;
17598;SDS011;8918;52.092;5.232;2022-12-18T14:20:52;19.37;;;12.37;;
17598;SDS011;8918;52.092;5.232;2022-12-18T14:26:24;21.27;;;12.73;;
17598;SDS011;8918;52.092;5.232;2022-12-18T14:28:56;20.70;;;12.90;;
17598;SDS011;8918;52.092;5.232;2022-12-18T14:31:26;20.50;;;12.80;;
17598;SDS011;8918;52.092;5.232;2022-12-18T14:33:53;20.70;;;12.10;;
17598;SDS011;8918;52.092;5.232;2022-12-18T14:36:23;23.00;;;13.10;;
17598;SDS011;8918;52.092;5.232;2022-12-18T14:38:52;21.87;;;12.67;;
17598;SDS011;8918;52.092;5.232;2022-12-18T14:41:22;22.77;;;12.67;;
17598;SDS011;8918;52.092;5.232;2022-12-18T14:43:49;19.40;;;12.30;;
17598;SDS011;8918;52.092;5.232;2022-12-18T14:46:30;20.93;;;12.07;;
17598;SDS011;8918;52.092;5.232;2022-12-18T14:48:58;21.77;;;13.00;;
17598;SDS011;8918;52.092;5.232;2022-12-18T14:51:25;24.07;;;12.57;;
17598;SDS011;8918;52.092;5.232;2022-12-18T14:53:54;20.40;;;11.73;;
17598;SDS011;8918;52.092;5.232;2022-12-18T14:58:53;20.80;;;12.63;;
17598;SDS011;8918;52.092;5.232;2022-12-18T15:01:24;21.70;;;12.70;;
17598;SDS011;8918;52.092;5.232;2022-12-18T15:03:53;22.80;;;13.90;;
17598;SDS011;8918;52.092;5.232;2022-12-18T15:06:27;24.37;;;14.70;;
17598;SDS011;8918;52.092;5.232;2022-12-18T15:08:55;30.80;;;17.33;;
17598;SDS011;8918;52.092;5.232;2022-12-18T15:11:25;23.43;;;14.33;;
17598;SDS011;8918;52.092;5.232;2022-12-18T15:13:58;22.03;;;12.90;;
17598;SDS011;8918;52.092;5.232;2022-12-18T15:16:25;21.47;;;13.50;;
17598;SDS011;8918;52.092;5.232;2022-12-18T15:18:51;21.63;;;13.03;;
17598;SDS011;8918;52.092;5.232;2022-12-18T15:21:18;22.27;;;13.97;;
17598;SDS011;8918;52.092;5.232;2022-12-18T15:26:14;26.73;;;15.13;;
17598;SDS011;8918;52.092;5.232;2022-12-18T15:28:51;21.13;;;12.63;;
17598;SDS011;8918;52.092;5.232;2022-12-18T15:31:22;21.07;;;13.57;;
17598;SDS011;8918;52.092;5.232;2022-12-18T15:36:28;21.43;;;13.13;;
17598;SDS011;8918;52.092;5.232;2022-12-18T15:38:55;24.20;;;13.87;;
17598;SDS011;8918;52.092;5.232;2022-12-18T15:41:22;25.17;;;14.40;;
17598;SDS011;8918;52.092;5.232;2022-12-18T15:43:48;21.17;;;13.53;;
17598;SDS011;8918;52.092;5.232;2022-12-18T15:46:16;20.70;;;12.97;;
17598;SDS011;8918;52.092;5.232;2022-12-18T15:48:50;22.97;;;13.90;;
17598;SDS011;8918;52.092;5.232;2022-12-18T15:51:20;23.13;;;14.03;;
17598;SDS011;8918;52.092;5.232;2022-12-18T15:53:53;21.77;;;13.27;;
17598;SDS011;8918;52.092;5.232;2022-12-18T15:56:21;23.90;;;13.73;;
17598;SDS011;8918;52.092;5.232;2022-12-18T15:59:16;22.40;;;13.70;;
17598;SDS011;8918;52.092;5.232;2022-12-18T16:01:44;25.30;;;15.00;;
17598;SDS011;8918;52.092;5.232;2022-12-18T16:04:12;26.93;;;15.47;;
17598;SDS011;8918;52.092;5.232;2022-12-18T16:06:38;24.90;;;15.10;;
17598;SDS011;8918;52.092;5.232;2022-12-18T16:09:04;25.80;;;14.60;;
17598;SDS011;8918;52.092;5.232;2022-12-18T16:11:31;23.93;;;14.23;;
17598;SDS011;8918;52.092;5.232;2022-12-18T16:16:51;22.67;;;13.80;;
17598;SDS011;8918;52.092;5.232;2022-12-18T16:19:18;22.97;;;14.30;;
17598;SDS011;8918;52.092;5.232;2022-12-18T16:21:45;23.33;;;14.30;;
17598;SDS011;8918;52.092;5.232;2022-12-18T16:24:21;21.93;;;13.80;;
17598;SDS011;8918;52.092;5.232;2022-12-18T16:26:48;23.00;;;14.27;;
17598;SDS011;8918;52.092;5.232;2022-12-18T16:29:16;23.70;;;14.43;;
17598;SDS011;8918;52.092;5.232;2022-12-18T16:31:43;23.93;;;14.83;;
17598;SDS011;8918;52.092;5.232;2022-12-18T16:34:09;23.00;;;14.57;;
17598;SDS011;8918;52.092;5.232;2022-12-18T16:36:36;25.83;;;14.33;;
17598;SDS011;8918;52.092;5.232;2022-12-18T16:39:03;26.57;;;14.57;;
17598;SDS011;8918;52.092;5.232;2022-12-18T16:41:28;25.07;;;14.60;;
17598;SDS011;8918;52.092;5.232;2022-12-18T16:43:57;26.93;;;15.17;;
17598;SDS011;8918;52.092;5.232;2022-12-18T16:46:23;27.93;;;15.70;;
17598;SDS011;8918;52.092;5.232;2022-12-18T16:48:49;27.03;;;15.93;;
17598;SDS011;8918;52.092;5.232;2022-12-18T16:51:15;26.10;;;15.40;;
17598;SDS011;8918;52.092;5.232;2022-12-18T16:53:40;26.33;;;15.40;;
17598;SDS011;8918;52.092;5.232;2022-12-18T16:56:06;23.73;;;14.53;;
17598;SDS011;8918;52.092;5.232;2022-12-18T16:58:32;24.83;;;14.87;;
17598;SDS011;8918;52.092;5.232;2022-12-18T17:00:58;25.10;;;15.10;;
17598;SDS011;8918;52.092;5.232;2022-12-18T17:03:23;26.47;;;15.83;;